Latest Coastal Weather Observations for Mandurah

IDW60701

Issued at 1:52 pm WST Saturday 5 September 2015 (issued every 10 minutes, with the page automatically refreshed every 10 minutes)

About coastal observations | Map of coastal stations | Coastal observations for WA | Marine services | Other Formats
Station Details ID: 009977 Name: MANDURAH Lat: -32.52 Lon: 115.71 Height: 3.0 m
Data from the previous 72 hours. | See also: Recent months at Mandurah
Date/Time
WST
Temp

°C
Wind Pressure Rain
since 9am
mm
Weather Cloud Vis
km
Sea
Height
m
Swell
Dir
 
Speed
knots
Gust
knots
hPa Trend Height
m
Period
s
Dir
05/01:30pm 17.3 SSW 12 19 1021.2 - 0.0 - - - - - - -
05/01:00pm 18.1 SW 11 17 1021.3 - 0.0 - - - - - - -
05/12:30pm 17.1 SW 12 19 1021.4 - 0.0 - - - - - - -
05/12:00pm 16.8 SW 11 23 1021.4 - 0.0 - - - - - - -
05/11:30am 15.9 SSW 10 18 1021.6 - 0.0 - - - - - - -
05/11:00am 17.7 SW 12 18 1021.2 - 0.0 - - - - - - -
05/10:30am 17.2 SSW 10 17 1021.1 - 0.0 - - - - - - -
05/10:00am 16.9 SSW 12 18 1020.8 - 0.0 - - - - - - -
05/09:30am 16.6 SSW 11 19 1020.7 - 0.0 - - - - - - -
05/09:00am 17.1 SW 11 17 1020.2 - 3.8 - - - - - - -
05/08:30am 16.3 SW 9 15 1020.1 - 3.8 - - - - - - -
05/08:00am 16.7 WSW 10 15 1019.6 - 3.8 - - - - - - -
05/07:30am 15.6 W 9 14 1019.2 - 3.8 - - - - - - -
05/07:00am 16.1 W 10 15 1018.7 - 3.8 - - - - - - -
05/06:30am 15.7 WSW 9 13 1018.3 - 3.8 - - - - - - -
05/06:00am 15.7 WSW 11 17 1018.1 - 3.8 - - - - - - -
05/05:30am 16.0 W 9 15 1017.8 - 3.8 - - - - - - -
05/05:00am 15.7 WSW 9 13 1017.6 - 3.8 - - - - - - -
05/04:30am 15.7 WSW 9 13 1017.2 - 3.8 - - - - - - -
05/04:00am 15.6 SW 8 12 1016.8 - 3.8 - - - - - - -
05/03:30am 15.8 SW 8 14 1016.5 - 3.8 - - - - - - -
05/03:00am 16.0 SW 9 17 1016.7 - 3.8 - - - - - - -
05/02:30am 15.9 SW 8 11 1016.5 - 3.8 - - - - - - -
05/02:00am 16.1 WSW 9 13 1016.5 - 3.8 - - - - - - -
05/01:30am 16.1 WSW 9 12 1016.4 - 3.8 - - - - - - -
05/01:00am 16.3 WSW 8 13 1016.4 - 3.8 - - - - - - -
05/12:30am 16.1 WSW 7 11 1016.3 - 3.8 - - - - - - -
05/12:00am 16.5 WSW 10 16 1016.2 - 3.8 - - - - - - -
 
Date/Time
WST
Temp

°C
Wind Pressure Rain
since 9am
mm
Weather Cloud Vis
km
Sea
Height
m
Swell
Dir
 
Speed
knots
Gust
knots
hPa Trend Height
m
Period
s
Dir
04/11:30pm 16.4 WSW 6 9 1016.3 - 3.8 - - - - - - -
04/11:00pm 16.5 WSW 5 9 1016.4 - 3.8 - - - - - - -
04/10:30pm 16.4 WSW 6 11 1016.5 - 3.8 - - - - - - -
04/10:00pm 16.6 W 7 9 1016.6 - 3.8 - - - - - - -
04/09:30pm 16.3 W 4 6 1016.6 - 3.8 - - - - - - -
04/09:00pm 15.8 W 6 8 1016.7 - 3.8 - - - - - - -
04/08:30pm 16.3 WNW 8 12 1016.8 - 3.8 - - - - - - -
04/08:00pm 16.4 WNW 11 13 1016.8 - 3.8 - - - - - - -
04/07:30pm 16.4 WNW 16 22 1016.6 - 1.8 - - - - - - -
04/07:16pm 16.6 NW 16 28 1016.0 - 1.8 - - - - - - -
04/07:00pm 17.5 NW 16 20 1016.0 - 0.0 - - - - - - -
04/06:30pm 17.6 NNW 17 21 1015.6 - 0.0 - - - - - - -
04/06:00pm 17.3 NNW 15 19 1015.1 - 0.0 - - - - - - -
04/05:30pm 17.2 NNW 16 19 1014.9 - 0.0 - - - - - - -
04/05:00pm 17.3 NNW 14 18 1015.0 - 0.0 - - - - - - -
04/04:30pm 17.2 NNW 14 17 1014.7 - 0.0 - - - - - - -
04/04:00pm 17.3 NNW 14 16 1014.2 - 0.0 - - - - - - -
04/03:30pm 17.3 NNW 13 15 1015.0 - 0.0 - - - - - - -
04/03:00pm 17.6 NNW 13 16 1014.9 - 0.0 - - - - - - -
04/02:30pm 17.9 NNW 12 14 1015.4 - 0.0 - - - - - - -
04/02:00pm 17.9 NNW 12 15 1015.5 - 0.0 - - - - - - -
04/01:30pm 18.3 NNW 12 15 1015.4 - 0.0 - - - - - - -
04/01:00pm 18.4 NNW 11 14 1015.6 - 0.0 - - - - - - -
04/12:30pm 18.5 NW 11 14 1016.3 - 0.0 - - - - - - -
04/12:00pm 18.6 NW 12 15 1016.7 - 0.0 - - - - - - -
04/11:30am 18.4 NW 10 12 1016.7 - 0.0 - - - - - - -
04/11:00am 17.6 NW 10 13 1016.8 - 0.0 - - - - - - -
04/10:30am 17.1 NW 10 12 1016.5 - 0.0 - - - - - - -
04/10:00am 17.0 NW 11 13 1017.0 - 0.0 - - - - - - -
04/09:30am 16.9 WNW 10 13 1017.1 - 0.0 - - - - - - -
04/09:00am 16.0 NNW 5 10 1017.0 - 0.0 - - - - - - -
04/08:30am 13.7 NE 5 7 1017.2 - 0.0 - - - - - - -
04/08:00am 13.1 NNE 4 7 1017.2 - 0.0 - - - - - - -
04/07:30am 12.1 NNE 4 6 1017.1 - 0.0 - - - - - - -
04/07:00am 12.0 NNE 4 6 1016.8 - 0.0 - - - - - - -
04/06:30am 11.5 NE 5 7 1016.4 - 0.0 - - - - - - -
04/06:00am 10.9 NE 5 6 1016.0 - 0.0 - - - - - - -
04/05:30am 9.9 NE 4 6 1015.6 - 0.0 - - - - - - -
04/05:00am 9.7 ENE 3 4 1015.3 - 0.0 - - - - - - -
04/04:30am 10.9 NE 3 4 1015.5 - 0.0 - - - - - - -
04/04:00am 11.0 ENE 1 3 1015.7 - 0.0 - - - - - - -
04/03:30am 10.8 ENE 1 2 1016.0 - 0.0 - - - - - - -
04/03:00am 10.6 ENE 2 2 1016.0 - 0.0 - - - - - - -
04/02:30am 10.6 ENE 2 3 1016.1 - 0.0 - - - - - - -
04/02:00am 10.4 ENE 1 1 1016.5 - 0.0 - - - - - - -
04/01:30am 10.8 ENE 2 2 1016.8 - 0.0 - - - - - - -
04/01:00am 10.8 ENE 1 2 1017.2 - 0.0 - - - - - - -
04/12:30am 10.7 ESE 2 3 1017.4 - 0.0 - - - - - - -
04/12:00am 11.2 SE 1 1 1017.7 - 0.0 - - - - - - -
 
Date/Time
WST
Temp

°C
Wind Pressure Rain
since 9am
mm
Weather Cloud Vis
km
Sea
Height
m
Swell
Dir
 
Speed
knots
Gust
knots
hPa Trend Height
m
Period
s
Dir
03/11:30pm 11.9 SE 2 3 1018.0 - 0.0 - - - - - - -
03/11:00pm 12.3 ESE 3 4 1018.5 - 0.0 - - - - - - -
03/10:30pm 12.4 ESE 4 5 1018.8 - 0.0 - - - - - - -
03/10:00pm 13.0 SE 4 5 1019.3 - 0.0 - - - - - - -
03/09:30pm 13.9 SSE 5 7 1019.6 - 0.0 - - - - - - -
03/09:00pm 14.2 SSE 6 8 1019.7 - 0.0 - - - - - - -
03/08:30pm 14.4 SSE 6 9 1019.8 - 0.0 - - - - - - -
03/08:00pm 14.8 SSE 6 9 1019.6 - 0.0 - - - - - - -
03/07:30pm 15.2 SSE 6 8 1019.5 - 0.0 - - - - - - -
03/07:00pm 15.4 SSE 5 8 1019.4 - 0.0 - - - - - - -
03/06:30pm 15.7 S 5 7 1019.3 - 0.0 - - - - - - -
03/06:00pm 16.2 S 5 7 1019.2 - 0.0 - - - - - - -
03/05:30pm 17.2 S 6 8 1019.0 - 0.0 - - - - - - -
03/05:00pm 17.9 S 6 10 1019.3 - 0.0 - - - - - - -
03/04:30pm 18.1 SW 6 8 1019.7 - 0.0 - - - - - - -
03/04:00pm 18.0 WSW 8 11 1020.0 - 0.0 - - - - - - -
03/03:30pm 18.5 WSW 7 9 1020.0 - 0.0 - - - - - - -
03/03:00pm 19.3 WSW 5 8 1020.2 - 0.0 - - - - - - -
03/02:30pm 19.3 WSW 5 6 1020.6 - 0.0 - - - - - - -
03/02:00pm 19.0 W 6 8 1020.8 - 0.0 - - - - - - -
03/01:30pm 19.8 NW 2 3 1021.0 - 0.0 - - - - - - -
03/01:00pm 18.8 NW 3 4 1021.5 - 0.0 - - - - - - -
03/12:30pm 18.9 N 2 3 1022.1 - 0.0 - - - - - - -
03/12:00pm 18.7 NE 5 7 1022.6 - 0.0 - - - - - - -
03/11:30am 18.1 NE 6 10 1022.8 - 0.0 - - - - - - -
03/11:00am 17.0 NE 9 13 1023.3 - 0.0 - - - - - - -
03/10:30am 16.6 ENE 7 12 1023.5 - 0.0 - - - - - - -
03/10:00am 15.5 ENE 8 12 1023.7 - 0.0 - - - - - - -
03/09:30am 14.2 ENE 10 18 1023.6 - 0.0 - - - - - - -
03/09:00am 13.0 ENE 7 15 1023.7 - 0.0 - - - - - - -
03/08:30am 11.2 E 7 11 1023.9 - 0.0 - - - - - - -
03/08:00am 10.1 E 7 11 1024.2 - 0.0 - - - - - - -
03/07:30am 9.4 E 7 11 1024.3 - 0.0 - - - - - - -
03/07:00am 8.9 E 6 10 1024.3 - 0.0 - - - - - - -
03/06:30am 8.9 ESE 5 7 1024.2 - 0.0 - - - - - - -
03/06:00am 9.1 ESE 5 8 1024.2 - 0.0 - - - - - - -
03/05:30am 9.4 ESE 7 12 1024.1 - 0.0 - - - - - - -
03/05:00am 9.3 ESE 5 10 1023.7 - 0.0 - - - - - - -
03/04:30am 9.4 ESE 5 9 1023.6 - 0.0 - - - - - - -
03/04:00am 9.8 ESE 6 9 1023.8 - 0.0 - - - - - - -
03/03:30am 10.1 ESE 6 8 1023.9 - 0.0 - - - - - - -
03/03:00am 10.5 SE 6 8 1024.1 - 0.0 - - - - - - -
03/02:30am 10.8 ESE 6 9 1024.6 - 0.0 - - - - - - -
03/02:00am 11.1 ESE 6 8 1024.8 - 0.0 - - - - - - -
03/01:30am 11.3 SE 5 8 1025.1 - 0.0 - - - - - - -
03/01:00am 11.6 E 5 8 1025.2 - 0.0 - - - - - - -
03/12:30am 11.7 ESE 5 7 1025.5 - 0.0 - - - - - - -
03/12:00am 11.8 ESE 5 7 1025.5 - 0.0 - - - - - - -
 
Date/Time
WST
Temp

°C
Wind Pressure Rain
since 9am
mm
Weather Cloud Vis
km
Sea
Height
m
Swell
Dir
 
Speed
knots
Gust
knots
hPa Trend Height
m
Period
s
Dir
02/11:30pm 11.9 ESE 3 5 1026.0 - 0.0 - - - - - - -
02/11:00pm 12.2 E 4 6 1026.2 - 0.0 - - - - - - -
02/10:30pm 12.3 ESE 5 7 1026.3 - 0.0 - - - - - - -
02/10:00pm 12.5 ESE 5 7 1026.4 - 0.0 - - - - - - -
02/09:30pm 12.8 SE 7 10 1026.1 - 0.0 - - - - - - -
02/09:00pm 12.8 SE 6 7 1026.1 - 0.0 - - - - - - -
02/08:30pm 12.8 ESE 4 6 1026.0 - 0.0 - - - - - - -
02/08:00pm 12.9 SE 6 8 1025.6 - 0.0 - - - - - - -
02/07:30pm 13.2 SE 6 9 1025.6 - 0.0 - - - - - - -
02/07:00pm 13.4 SE 5 9 1025.7 - 0.0 - - - - - - -
02/06:30pm 13.7 SE 7 10 1025.5 - 0.0 - - - - - - -
02/06:00pm 13.9 SE 7 10 1025.4 - 0.0 - - - - - - -
02/05:30pm 14.3 SE 6 10 1025.4 - 0.0 - - - - - - -
02/05:00pm 14.6 SE 7 11 1025.3 - 0.0 - - - - - - -
02/04:30pm 14.7 SE 8 11 1025.0 - 0.0 - - - - - - -
02/04:00pm 14.7 SSE 7 11 1025.2 - 0.0 - - - - - - -
02/03:30pm 14.9 SE 7 10 1025.3 - 0.0 - - - - - - -
02/03:00pm 15.0 SE 8 12 1025.2 - 0.0 - - - - - - -
02/02:30pm 15.5 SE 7 11 1025.1 - 0.0 - - - - - - -
02/02:00pm 15.1 SE 7 12 1025.1 - 0.0 - - - - - - -

Other Formats:

Comma delimited format used in spreadsheet applications
http://www.bom.gov.au/fwo/IDW60701/IDW60701.94605.axf

JavaScript Object Notation format (JSON) in row-major order
http://www.bom.gov.au/fwo/IDW60701/IDW60701.94605.json